Metar Aviation Weather Data        EGKK Shoreham Airport
Temperature
11°C Temperature
10°C Dewpoint
94% Humidity



Wind
6 MPH
9 KM/H
3 M/S
5 KTS



210°
SSW
Current Conditions

Mostly Clear Mostly Clear
Pressure 1014 (hPa) - 29.94 (inHg)
Visibility 6 (mile) - 10 (km)
Airport
Airport-code EGKK

Location: Shoreham Airport
Distance: 9 (mi)

Metar:
METAR EGKK 262350Z 21005KT 9999 FEW016 11/10 Q1014

Time: 27-05-2024 00:50 BST